Time;durP1;ratioP1;P1;durP2;ratioP2;P2;SDS_P1;SDS_P2;PMS_P1;PMS_P2;Temp;Humidity;BMP_temperature;BMP_pressure;BME280_temperature;BME280_humidity;BME280_pressure;Samples;Min_cycle;Max_cycle;Signal;HPM_P1;HPM_P2
2023/08/29 00:01:17;;;;;;;9.30;5.07;;;;;;;-143.84;40.77;44974.81;5131975;27;20812;-58
2023/08/29 00:03:46;;;;;;;5.50;4.80;;;;;;;-143.84;40.75;44999.56;5132005;27;20441;-58
2023/08/29 00:06:13;;;;;;;6.37;5.13;;;;;;;-143.84;40.61;44991.94;5132000;27;20945;-58
2023/08/29 00:08:40;;;;;;;6.10;5.50;;;;;;;-143.84;41.23;44990.03;5131884;27;20433;-58
2023/08/29 00:11:07;;;;;;;6.57;4.50;;;;;;;-143.84;40.62;45007.19;5131397;27;20457;-58
2023/08/29 00:13:34;;;;;;;8.60;4.50;;;;;;;-143.84;40.25;45001.47;5131759;27;20936;-58
2023/08/29 00:16:02;;;;;;;21.73;5.53;;;;;;;-143.84;40.54;45009.09;5131815;27;20441;-58
2023/08/29 00:18:29;;;;;;;8.93;5.07;;;;;;;-143.84;40.42;44984.31;5131976;27;20474;-58
2023/08/29 00:20:57;;;;;;;9.03;4.90;;;;;;;-143.84;40.76;44986.22;5131247;27;20434;-58
2023/08/29 00:23:25;;;;;;;14.30;5.07;;;;;;;-143.84;41.29;45003.38;5131148;27;20450;-58
2023/08/29 00:25:52;;;;;;;6.23;5.20;;;;;;;-143.84;41.06;45009.09;5131052;27;20482;-58
2023/08/29 00:28:19;;;;;;;11.87;5.33;;;;;;;-143.84;40.42;44988.13;5131142;27;20437;-58
2023/08/29 00:30:46;;;;;;;13.47;6.10;;;;;;;-143.84;40.66;44997.66;5130866;27;20438;-58
2023/08/29 00:33:13;;;;;;;14.17;5.00;;;;;;;-143.84;40.46;45026.22;5131167;27;20438;-58
2023/08/29 00:35:41;;;;;;;9.30;5.30;;;;;;;-143.84;40.70;44991.94;5131552;27;20964;-58
2023/08/29 00:38:11;;;;;;;10.13;4.60;;;;;;;-143.84;40.74;44986.22;5131537;27;20422;-58
2023/08/29 00:40:38;;;;;;;10.27;5.23;;;;;;;-143.84;40.77;45020.50;5131637;27;20495;-58
2023/08/29 00:43:05;;;;;;;8.60;5.33;;;;;;;-143.84;41.23;45014.78;5131471;27;20434;-58
2023/08/29 00:45:34;;;;;;;7.33;5.10;;;;;;;-143.84;42.01;45012.88;5131272;27;20471;-58
2023/08/29 00:48:01;;;;;;;7.07;5.17;;;;;;;-143.84;41.90;45010.97;5131289;27;20434;-58
2023/08/29 00:50:29;;;;;;;11.50;5.10;;;;;;;-143.84;42.00;45014.78;5131168;27;20517;-58
2023/08/29 00:52:59;;;;;;;13.13;5.57;;;;;;;-143.84;42.11;45014.78;5130669;27;20530;-58
2023/08/29 00:55:29;;;;;;;5.97;5.10;;;;;;;-143.84;41.91;45014.78;5131638;27;20977;-58
2023/08/29 00:57:57;;;;;;;5.33;4.70;;;;;;;-143.84;41.65;45016.69;5131064;27;20495;-58
2023/08/29 01:00:24;;;;;;;9.33;4.93;;;;;;;-143.84;41.96;44988.13;5131039;27;20436;-58
2023/08/29 01:02:51;;;;;;;8.03;5.03;;;;;;;-143.84;41.96;45005.28;5131165;27;20932;-58
2023/08/29 01:05:20;;;;;;;7.33;5.30;;;;;;;-143.84;42.39;45010.97;5131011;27;20438;-58
2023/08/29 01:07:48;;;;;;;7.17;5.90;;;;;;;-143.84;42.45;44982.41;5131181;27;20496;-58
2023/08/29 01:10:15;;;;;;;7.30;5.00;;;;;;;-143.84;42.36;45001.47;5130874;27;20426;-58
2023/08/29 01:12:53;;;;;;;26.63;6.90;;;;;;;-143.84;42.76;45016.69;5131207;27;20742;-58
2023/08/29 01:15:23;;;;;;;9.93;4.97;;;;;;;-143.84;42.42;45018.59;5130679;27;20438;-58
2023/08/29 01:17:53;;;;;;;28.53;6.10;;;;;;;-143.84;43.64;45007.19;5130466;27;20433;-58
2023/08/29 01:20:22;;;;;;;16.63;6.07;;;;;;;-143.84;44.19;45010.97;5130507;27;21040;-57
2023/08/29 01:22:58;;;;;;;19.13;5.77;;;;;;;-143.84;44.14;45028.13;5130409;27;20430;-58
2023/08/29 01:25:31;;;;;;;10.10;5.70;;;;;;;-143.84;43.89;45012.88;5130255;27;20861;-58
2023/08/29 01:28:02;;;;;;;23.83;7.07;;;;;;;-143.84;44.38;44997.66;5130027;27;20560;-58
2023/08/29 01:30:30;;;;;;;13.27;6.03;;;;;;;-143.84;45.02;44991.94;5130209;27;20438;-58
2023/08/29 01:32:58;;;;;;;12.40;5.63;;;;;;;-143.84;44.87;45001.47;5130149;27;20430;-58
2023/08/29 01:35:25;;;;;;;18.03;6.27;;;;;;;-143.84;44.82;45010.97;5130026;27;20451;-58
2023/08/29 01:37:52;;;;;;;11.37;4.80;;;;;;;-143.84;44.90;44997.66;5130139;27;20438;-58
2023/08/29 01:40:20;;;;;;;6.63;5.33;;;;;;;-143.84;44.67;44991.94;5130127;27;20498;-58
2023/08/29 01:42:47;;;;;;;13.43;5.30;;;;;;;-143.84;44.69;44991.94;5130173;27;20495;-58
2023/08/29 01:45:15;;;;;;;15.03;5.60;;;;;;;-143.84;44.54;45016.69;5130469;27;20445;-58
2023/08/29 01:47:42;;;;;;;12.33;5.60;;;;;;;-143.84;44.75;45016.69;5130009;27;20872;-58
2023/08/29 01:50:12;;;;;;;15.20;6.23;;;;;;;-143.84;45.89;45003.38;5130020;27;21149;-58
2023/08/29 01:52:42;;;;;;;9.03;5.57;;;;;;;-143.84;45.35;44988.13;5129859;27;20430;-58
2023/08/29 01:55:09;;;;;;;22.00;5.70;;;;;;;-143.84;45.37;44990.03;5130157;27;20434;-58
2023/08/29 01:57:37;;;;;;;14.13;5.90;;;;;;;-143.84;44.70;45018.59;5130214;27;20479;-58
2023/08/29 02:00:05;;;;;;;5.60;5.00;;;;;;;-143.84;45.04;45003.38;5130328;27;20494;-58
2023/08/29 02:02:34;;;;;;;9.63;4.60;;;;;;;-143.84;44.51;44999.56;5129984;27;20430;-58
2023/08/29 02:05:01;;;;;;;9.70;5.70;;;;;;;-143.84;43.87;45003.38;5131735;27;20498;-58
2023/08/29 02:07:28;;;;;;;7.60;5.43;;;;;;;-143.84;43.11;45010.97;5133987;27;20567;-58
2023/08/29 02:09:55;;;;;;;10.83;5.27;;;;;;;-143.84;43.33;45030.03;5134094;27;20934;-58
2023/08/29 02:12:22;;;;;;;9.10;5.37;;;;;;;-143.84;42.49;45007.19;5134220;27;20430;-58
2023/08/29 02:14:49;;;;;;;7.60;4.53;;;;;;;-143.84;42.54;45009.09;5133965;27;20442;-58
2023/08/29 02:17:16;;;;;;;12.27;5.20;;;;;;;-143.84;42.80;44995.75;5134183;27;20518;-58
2023/08/29 02:19:45;;;;;;;8.23;5.17;;;;;;;-143.84;42.66;45007.19;5133837;27;20434;-58
2023/08/29 02:22:13;;;;;;;6.10;5.33;;;;;;;-143.84;42.71;45012.88;5133770;27;20502;-58
2023/08/29 02:24:40;;;;;;;8.30;5.10;;;;;;;-143.84;43.13;45007.19;5133488;27;20437;-58
2023/08/29 02:27:07;;;;;;;7.53;5.03;;;;;;;-143.84;43.01;45018.59;5132497;27;20477;-59
2023/08/29 02:29:34;;;;;;;6.80;5.37;;;;;;;-143.84;43.23;45010.97;5132892;27;20776;-59
2023/08/29 02:32:01;;;;;;;12.10;5.23;;;;;;;-143.84;43.05;44999.56;5132484;27;20499;-59
2023/08/29 02:34:28;;;;;;;8.20;5.00;;;;;;;-143.84;42.99;45018.59;5132588;27;20493;-59
2023/08/29 02:36:56;;;;;;;8.93;4.70;;;;;;;-143.84;42.65;44993.84;5132294;27;20798;-59
2023/08/29 02:39:24;;;;;;;5.97;5.13;;;;;;;-143.84;42.82;44988.13;5132737;27;20430;-59
2023/08/29 02:41:51;;;;;;;7.63;5.10;;;;;;;-143.84;43.26;44991.94;5132684;27;20434;-59
2023/08/29 02:44:18;;;;;;;5.93;5.33;;;;;;;-143.84;43.25;45026.22;5132410;27;20441;-59
2023/08/29 02:46:45;;;;;;;14.37;5.57;;;;;;;-143.84;43.05;44984.31;5132038;27;20481;-59
2023/08/29 02:49:12;;;;;;;15.17;4.57;;;;;;;-143.84;43.33;44976.72;5132350;27;20456;-59
2023/08/29 02:51:39;;;;;;;6.37;5.33;;;;;;;-143.84;43.24;45009.09;5132419;27;20430;-59
2023/08/29 02:54:08;;;;;;;11.70;5.13;;;;;;;-143.84;43.42;45022.41;5132273;27;20490;-58
2023/08/29 02:56:35;;;;;;;11.13;5.13;;;;;;;-143.84;43.05;44978.63;5132160;27;20446;-58
2023/08/29 02:59:02;;;;;;;9.03;4.93;;;;;;;-143.84;43.19;44997.66;5132204;27;20430;-59
2023/08/29 03:01:29;;;;;;;6.10;4.97;;;;;;;-143.84;43.19;45016.69;5131651;27;20494;-59
2023/08/29 03:03:56;;;;;;;5.57;5.00;;;;;;;-143.84;43.30;45016.69;5132010;27;20483;-59
2023/08/29 03:06:24;;;;;;;11.20;5.00;;;;;;;-143.84;43.19;45009.09;5131901;27;20446;-58
2023/08/29 03:08:51;;;;;;;6.33;4.87;;;;;;;-143.84;42.95;45028.13;5131802;27;20483;-58
2023/08/29 03:11:19;;;;;;;9.33;5.00;;;;;;;-143.84;43.36;45001.47;5131761;27;20495;-59
2023/08/29 03:13:46;;;;;;;9.50;5.13;;;;;;;-143.84;43.10;44997.66;5131664;27;20445;-58
2023/08/29 03:16:14;;;;;;;7.17;5.20;;;;;;;-143.84;43.16;45005.28;5130980;27;20792;-59
2023/08/29 03:18:42;;;;;;;7.70;5.27;;;;;;;-143.84;42.91;44997.66;5131856;27;20775;-58
2023/08/29 03:21:09;;;;;;;10.23;4.93;;;;;;;-143.84;43.07;44984.31;5131930;27;20430;-58
2023/08/29 03:23:37;;;;;;;23.83;5.37;;;;;;;-143.84;42.97;45009.09;5132014;27;20464;-58
2023/08/29 03:26:06;;;;;;;9.57;4.97;;;;;;;-143.84;43.15;45003.38;5131715;27;20486;-58
2023/08/29 03:28:35;;;;;;;10.93;5.47;;;;;;;-143.84;42.95;45001.47;5131355;27;20470;-58
2023/08/29 03:31:11;;;;;;;8.50;4.60;;;;;;;-143.84;43.16;44982.41;5131235;27;20437;-58
2023/08/29 03:33:39;;;;;;;7.87;5.50;;;;;;;-143.84;42.85;44995.75;5131455;27;20454;-57
2023/08/29 03:36:07;;;;;;;8.47;4.87;;;;;;;-143.84;43.09;44986.22;5131451;27;20434;-58
2023/08/29 03:38:36;;;;;;;7.23;5.63;;;;;;;-143.84;42.94;44997.66;5131453;27;20442;-58
2023/08/29 03:41:04;;;;;;;11.93;5.37;;;;;;;-143.84;42.66;44990.03;5131251;27;20845;-58
2023/08/29 03:43:32;;;;;;;15.50;5.87;;;;;;;-143.84;42.58;44984.31;5130941;27;20440;-58
2023/08/29 03:46:02;;;;;;;11.13;5.10;;;;;;;-143.84;42.94;44997.66;5130864;27;20856;-58
2023/08/29 03:48:30;;;;;;;11.87;5.00;;;;;;;-143.84;42.91;44993.84;5131122;27;20508;-58
2023/08/29 03:50:58;;;;;;;8.60;5.20;;;;;;;-143.84;42.65;44976.72;5130948;27;20585;-58
2023/08/29 03:53:25;;;;;;;14.13;5.00;;;;;;;-143.84;42.87;44984.31;5130908;27;20926;-58
2023/08/29 03:55:52;;;;;;;21.93;5.80;;;;;;;-143.84;42.99;44988.13;5131114;27;20457;-58
2023/08/29 03:58:19;;;;;;;8.40;5.10;;;;;;;-143.84;42.62;44978.63;5130881;27;20438;-58
2023/08/29 04:00:47;;;;;;;28.27;5.27;;;;;;;-143.84;42.47;45007.19;5130663;27;20434;-58
2023/08/29 04:03:15;;;;;;;9.03;5.00;;;;;;;-143.84;42.34;44971.00;5130844;27;20493;-58
2023/08/29 04:05:42;;;;;;;14.30;5.53;;;;;;;-143.84;42.79;44999.56;5130847;27;20438;-58
2023/08/29 04:08:10;;;;;;;6.83;5.43;;;;;;;-143.84;42.59;45007.19;5130589;27;20527;-58
2023/08/29 04:10:38;;;;;;;8.30;5.37;;;;;;;-143.84;42.45;44991.94;5130772;27;21017;-58
2023/08/29 04:13:06;;;;;;;10.83;4.70;;;;;;;-143.84;41.97;44990.03;5130734;27;20526;-58
2023/08/29 04:15:34;;;;;;;25.63;5.20;;;;;;;-143.84;41.98;44972.91;5130677;27;20438;-58
2023/08/29 04:18:01;;;;;;;12.07;5.63;;;;;;;-143.84;42.00;44982.41;5117770;27;20526;-58
2023/08/29 04:20:31;;;;;;;13.30;5.50;;;;;;;-143.84;42.09;44950.06;5127497;27;20442;-58
2023/08/29 04:22:58;;;;;;;8.10;4.77;;;;;;;-143.84;42.08;44971.00;5130364;27;20514;-58
2023/08/29 04:25:26;;;;;;;7.73;4.73;;;;;;;-143.84;42.02;44993.84;5130156;27;20516;-58
2023/08/29 04:27:54;;;;;;;7.20;4.53;;;;;;;-143.84;41.94;45005.28;5129325;27;20475;-58
2023/08/29 04:30:21;;;;;;;8.70;5.10;;;;;;;-143.84;41.42;44982.41;5130387;27;20430;-58
2023/08/29 04:32:50;;;;;;;7.30;4.67;;;;;;;-143.84;41.37;44972.91;5130162;27;20433;-58
2023/08/29 04:35:19;;;;;;;16.83;5.73;;;;;;;-143.84;41.12;44978.63;5130104;27;20503;-58
2023/08/29 04:37:49;;;;;;;5.40;4.90;;;;;;;-143.84;41.05;44990.03;5130162;27;20499;-58
2023/08/29 04:40:17;;;;;;;12.53;6.57;;;;;;;-143.84;40.86;44961.47;5130285;27;21302;-58
2023/08/29 04:42:45;;;;;;;8.50;5.00;;;;;;;-143.84;41.08;44972.91;5129903;27;20434;-58
2023/08/29 04:45:12;;;;;;;8.50;4.63;;;;;;;-143.84;40.68;44955.75;5130124;27;20430;-58
2023/08/29 04:47:39;;;;;;;8.80;4.90;;;;;;;-143.84;40.45;44971.00;5130078;27;20504;-58
2023/08/29 04:50:08;;;;;;;8.23;5.40;;;;;;;-143.84;40.30;44969.09;5129739;27;20430;-58
2023/08/29 04:52:35;;;;;;;12.70;5.03;;;;;;;-143.84;39.74;44929.09;5129768;27;20516;-58
2023/08/29 04:55:05;;;;;;;13.10;5.10;;;;;;;-143.84;39.44;44931.00;5130009;27;20430;-58
2023/08/29 04:57:34;;;;;;;8.73;4.67;;;;;;;-143.84;38.96;44951.97;5129759;27;20446;-58
2023/08/29 05:00:01;;;;;;;8.23;5.20;;;;;;;-143.84;38.74;44931.00;5129436;27;21023;-57
2023/08/29 05:02:28;;;;;;;6.53;4.90;;;;;;;-143.84;38.24;44927.19;5129257;27;20949;-58
2023/08/29 05:04:55;;;;;;;9.93;5.67;;;;;;;-143.84;37.43;44911.97;5129233;27;20446;-57
2023/08/29 05:07:22;;;;;;;16.00;5.63;;;;;;;-143.84;37.33;44883.41;5129236;27;20481;-57
2023/08/29 05:09:49;;;;;;;14.00;5.33;;;;;;;-143.84;37.85;44900.53;5128823;27;20434;-57
2023/08/29 05:12:18;;;;;;;14.80;5.70;;;;;;;-143.84;37.42;44889.13;5129038;27;20441;-57
2023/08/29 05:14:45;;;;;;;15.80;6.17;;;;;;;-143.84;37.09;44900.53;5129594;27;20442;-58
2023/08/29 05:17:12;;;;;;;18.83;5.83;;;;;;;-143.84;37.81;44885.31;5130132;27;20948;-57
2023/08/29 05:19:40;;;;;;;10.60;5.07;;;;;;;-143.84;35.94;44866.28;5129755;27;20483;-57
2023/08/29 05:22:07;;;;;;;13.63;5.17;;;;;;;-143.84;35.11;44873.88;5129701;27;20441;-57
2023/08/29 05:24:34;;;;;;;7.50;5.40;;;;;;;-143.84;34.87;44854.84;5129199;27;20449;-58
2023/08/29 05:27:02;;;;;;;9.87;5.13;;;;;;;-143.84;34.31;44845.31;5129464;27;20434;-57
2023/08/29 05:29:30;;;;;;;9.53;5.17;;;;;;;-143.84;34.22;44860.56;5129332;27;20521;-56
2023/08/29 05:31:57;;;;;;;9.43;6.70;;;;;;;-143.84;34.23;44894.84;5129596;27;20441;-57
2023/08/29 05:34:24;;;;;;;33.93;22.17;;;;;;;-143.84;34.80;44864.38;5129589;27;20426;-57
2023/08/29 05:36:52;;;;;;;14.10;6.33;;;;;;;-143.84;34.21;44843.44;5130217;27;20438;-57
2023/08/29 05:39:19;;;;;;;71.00;40.00;;;;;;;-143.84;33.61;44841.53;5131895;27;20433;-57
2023/08/29 05:41:46;;;;;;;45.93;21.50;;;;;;;-143.84;33.84;44839.63;5133557;27;20959;-57
2023/08/29 05:44:14;;;;;;;75.30;34.00;;;;;;;-143.84;33.72;44841.53;5133707;27;20509;-57
2023/08/29 05:46:42;;;;;;;54.77;28.37;;;;;;;-143.84;33.90;44833.91;5133671;27;20452;-57
2023/08/29 05:49:09;;;;;;;29.00;13.50;;;;;;;-143.84;33.93;44828.19;5133709;27;20477;-57
2023/08/29 05:51:37;;;;;;;8.40;7.60;;;;;;;-143.84;33.42;44835.81;5133574;27;20434;-57
2023/08/29 05:54:04;;;;;;;10.10;7.90;;;;;;;-143.84;33.29;44801.53;5133895;27;20524;-57
2023/08/29 05:56:31;;;;;;;17.97;7.63;;;;;;;-143.84;33.45;44809.16;5133514;27;20441;-57
2023/08/29 05:58:58;;;;;;;13.60;6.47;;;;;;;-143.84;32.04;44803.44;5133624;27;20522;-57
2023/08/29 06:01:26;;;;;;;17.00;6.83;;;;;;;-143.84;32.66;44826.28;5133589;27;20429;-57
2023/08/29 06:03:54;;;;;;;14.80;6.37;;;;;;;-143.84;32.17;44812.97;5133370;27;20445;-57
2023/08/29 06:06:22;;;;;;;9.70;6.33;;;;;;;-143.84;32.50;44772.97;5133541;27;20446;-57
2023/08/29 06:08:49;;;;;;;11.73;5.70;;;;;;;-143.84;31.92;44778.69;5133575;27;20592;-57
2023/08/29 06:11:16;;;;;;;13.23;6.80;;;;;;;-143.84;31.99;44771.06;5133452;27;20438;-57
2023/08/29 06:13:43;;;;;;;17.10;5.47;;;;;;;-143.84;32.11;44793.91;5133387;27;20500;-57
2023/08/29 06:16:10;;;;;;;10.73;5.63;;;;;;;-143.84;31.97;44803.44;5133663;27;20441;-57
2023/08/29 06:18:38;;;;;;;11.90;5.73;;;;;;;-143.84;30.80;44769.16;5133365;27;20967;-57
2023/08/29 06:21:06;;;;;;;10.43;6.00;;;;;;;-143.84;31.97;44755.84;5133294;27;20867;-57
2023/08/29 06:23:34;;;;;;;20.03;5.40;;;;;;;-143.84;31.97;44761.56;5133290;27;20458;-57
2023/08/29 06:26:02;;;;;;;6.33;5.30;;;;;;;-143.84;31.33;44761.56;5133060;27;20488;-57
2023/08/29 06:28:30;;;;;;;19.53;6.10;;;;;;;-143.84;31.47;44763.47;5133419;27;20564;-57
2023/08/29 06:30:57;;;;;;;18.30;6.40;;;;;;;-143.84;31.69;44792.00;5132879;27;20474;-57
2023/08/29 06:33:25;;;;;;;14.27;5.87;;;;;;;-143.84;30.38;44752.03;5132919;27;20952;-57
2023/08/29 06:35:52;;;;;;;21.77;6.00;;;;;;;-143.84;30.97;44744.41;5132974;27;20498;-57
2023/08/29 06:38:20;;;;;;;15.80;7.07;;;;;;;-143.84;30.73;44729.19;5132638;27;20494;-57
2023/08/29 06:40:55;;;;;;;22.93;7.60;;;;;;;-143.84;31.88;44769.16;5132797;27;20442;-57
2023/08/29 06:43:22;;;;;;;20.37;6.90;;;;;;;-143.84;30.82;44774.88;5133170;27;21035;-57
2023/08/29 06:45:49;;;;;;;16.13;6.43;;;;;;;-143.84;31.15;44755.84;5132757;27;20947;-57
2023/08/29 06:48:17;;;;;;;18.93;6.47;;;;;;;-143.84;31.80;44736.81;5132692;27;20481;-57
2023/08/29 06:50:44;;;;;;;10.33;6.87;;;;;;;-143.84;31.32;44769.16;5131786;27;20430;-57
2023/08/29 06:53:11;;;;;;;28.63;7.13;;;;;;;-143.84;32.20;44748.22;5132519;27;20453;-57
2023/08/29 06:55:40;;;;;;;18.87;6.53;;;;;;;-143.84;31.61;44733.00;5132904;27;20429;-57
2023/08/29 06:58:07;;;;;;;17.93;6.93;;;;;;;-143.84;31.82;44750.13;5132774;27;20457;-57
2023/08/29 07:00:35;;;;;;;8.80;5.80;;;;;;;-143.84;31.47;44759.66;5132831;27;20441;-57
2023/08/29 07:03:03;;;;;;;13.07;7.00;;;;;;;-143.84;33.10;44713.94;5132742;27;20456;-57
2023/08/29 07:05:30;;;;;;;17.27;6.27;;;;;;;-143.84;33.78;44769.16;5132986;27;20948;-57
2023/08/29 07:07:58;;;;;;;16.07;6.30;;;;;;;-143.84;33.40;44731.09;5132273;27;20442;-57
2023/08/29 07:10:25;;;;;;;10.60;5.60;;;;;;;-143.84;31.83;44708.25;5132685;27;20862;-57
2023/08/29 07:12:54;;;;;;;8.67;6.70;;;;;;;-143.84;33.56;44729.19;5132457;27;20436;-57
2023/08/29 07:15:21;;;;;;;15.33;5.60;;;;;;;-143.84;33.74;44702.53;5132476;27;20446;-57
2023/08/29 07:17:49;;;;;;;24.00;6.53;;;;;;;-143.84;32.43;44694.91;5132318;27;20954;-57
2023/08/29 07:20:17;;;;;;;20.63;6.40;;;;;;;-143.84;32.26;44708.25;5132704;27;20426;-57
2023/08/29 07:22:44;;;;;;;16.60;6.40;;;;;;;-143.84;32.77;44717.75;5132279;27;20434;-57
2023/08/29 07:25:12;;;;;;;10.07;6.03;;;;;;;-143.84;32.17;44712.06;5131823;27;20855;-57
2023/08/29 07:27:40;;;;;;;10.97;6.57;;;;;;;-143.84;32.28;44736.81;5132257;27;20445;-57
2023/08/29 07:30:14;;;;;;;17.90;6.43;;;;;;;-143.84;32.26;44734.91;5132028;27;20514;-57
2023/08/29 07:32:42;;;;;;;88.23;66.80;;;;;;;-143.84;32.71;44759.66;5132075;27;20450;-57
2023/08/29 07:35:09;;;;;;;21.63;8.10;;;;;;;-143.84;33.38;44748.22;5131993;27;20974;-56
2023/08/29 07:37:36;;;;;;;17.70;6.50;;;;;;;-143.84;33.34;44761.56;5131869;27;20462;-56
2023/08/29 07:40:04;;;;;;;12.70;6.60;;;;;;;-143.84;33.83;44763.47;5131642;27;20442;-57
2023/08/29 07:42:32;;;;;;;19.00;6.20;;;;;;;-143.84;34.55;44725.38;5131894;27;20470;-57
2023/08/29 07:44:59;;;;;;;12.90;6.43;;;;;;;-143.84;34.84;44755.84;5131581;27;21119;-58
2023/08/29 07:47:28;;;;;;;11.37;7.13;;;;;;;-143.84;35.45;44746.31;5131857;27;20952;-57
2023/08/29 07:49:55;;;;;;;14.73;6.70;;;;;;;-143.84;36.15;44755.84;5131583;27;20474;-57
2023/08/29 07:52:22;;;;;;;9.90;6.00;;;;;;;-143.84;35.16;44772.97;5131538;27;20438;-57
2023/08/29 07:54:49;;;;;;;12.33;6.80;;;;;;;-143.84;35.76;44736.81;5131596;27;20445;-58
2023/08/29 07:57:16;;;;;;;11.00;6.20;;;;;;;-143.84;35.79;44759.66;5131325;27;20442;-57
2023/08/29 07:59:44;;;;;;;12.90;6.80;;;;;;;-143.84;35.67;44788.22;5131733;27;21246;-57
2023/08/29 08:02:11;;;;;;;10.50;6.47;;;;;;;-143.84;35.71;44792.00;5131490;27;20440;-57
2023/08/29 08:04:39;;;;;;;9.80;6.37;;;;;;;-143.84;35.14;44776.78;5131378;27;20441;-57
2023/08/29 08:07:06;;;;;;;17.13;6.37;;;;;;;-143.84;35.08;44755.84;5131295;27;20441;-57
2023/08/29 08:09:34;;;;;;;14.70;6.70;;;;;;;-143.84;34.77;44797.72;5131301;27;20485;-57
2023/08/29 08:12:02;;;;;;;12.07;6.17;;;;;;;-143.84;34.99;44761.56;5131275;27;20446;-57
2023/08/29 08:14:29;;;;;;;10.10;6.30;;;;;;;-143.84;35.21;44780.59;5131354;27;20537;-57
2023/08/29 08:16:56;;;;;;;23.27;7.37;;;;;;;-143.84;35.07;44793.91;5131029;27;20434;-57
2023/08/29 08:19:24;;;;;;;9.80;6.10;;;;;;;-143.84;34.91;44786.31;5130942;27;20434;-57
2023/08/29 08:21:52;;;;;;;10.20;5.90;;;;;;;-143.84;34.12;44780.59;5131010;27;20435;-57
2023/08/29 08:24:20;;;;;;;16.17;7.23;;;;;;;-143.84;33.26;44755.84;5131322;27;20473;-57
2023/08/29 08:26:47;;;;;;;10.07;7.07;;;;;;;-143.84;33.43;44771.06;5130681;27;20481;-57
2023/08/29 08:29:14;;;;;;;11.67;6.27;;;;;;;-143.84;31.86;44757.75;5130643;27;20478;-57
2023/08/29 08:31:41;;;;;;;11.03;5.93;;;;;;;-143.84;33.60;44750.13;5130849;27;20439;-57
2023/08/29 08:34:10;;;;;;;11.33;5.90;;;;;;;-143.84;33.13;44776.78;5130863;27;20434;-57
2023/08/29 08:36:38;;;;;;;8.37;5.80;;;;;;;-143.84;32.49;44753.94;5130510;27;20430;-57
2023/08/29 08:39:06;;;;;;;14.43;5.77;;;;;;;-143.84;32.92;44774.88;5130631;27;20438;-57
2023/08/29 08:41:34;;;;;;;26.90;5.60;;;;;;;-143.84;33.68;44782.50;5130560;27;20441;-57
2023/08/29 08:44:05;;;;;;;24.43;6.07;;;;;;;-143.84;33.05;44752.03;5130577;27;20430;-57
2023/08/29 08:46:34;;;;;;;14.33;6.10;;;;;;;-143.84;32.57;44738.69;5130699;27;20434;-57
2023/08/29 08:49:02;;;;;;;11.33;5.90;;;;;;;-143.84;32.89;44769.16;5130249;27;21005;-57
2023/08/29 08:51:31;;;;;;;10.13;6.00;;;;;;;-143.84;33.53;44755.84;5130319;27;20962;-57
2023/08/29 08:53:59;;;;;;;18.20;6.30;;;;;;;-143.84;34.29;44767.25;5130368;27;20437;-57
2023/08/29 08:56:28;;;;;;;8.13;6.13;;;;;;;-143.84;34.16;44792.00;5130667;27;20434;-57
2023/08/29 08:58:56;;;;;;;10.27;5.73;;;;;;;-143.84;33.82;44793.91;5130567;27;20446;-57
2023/08/29 09:01:23;;;;;;;12.20;6.60;;;;;;;-143.84;34.04;44755.84;5130486;27;20437;-57
2023/08/29 09:03:50;;;;;;;14.03;6.00;;;;;;;-143.84;33.67;44757.75;5130280;27;20426;-57
2023/08/29 09:06:18;;;;;;;27.73;6.87;;;;;;;-143.84;34.08;44772.97;5130221;27;20434;-57
2023/08/29 09:08:45;;;;;;;15.07;6.20;;;;;;;-143.84;34.79;44769.16;5130106;27;20508;-57
2023/08/29 09:11:12;;;;;;;16.70;6.33;;;;;;;-143.84;34.47;44744.41;5130295;27;20513;-57
2023/08/29 09:13:48;;;;;;;11.83;6.03;;;;;;;-143.84;34.34;44750.13;5129743;27;20430;-57
2023/08/29 09:16:16;;;;;;;14.60;6.07;;;;;;;-143.84;34.12;44767.25;5129937;27;20429;-57
2023/08/29 09:18:44;;;;;;;18.33;5.60;;;;;;;-143.84;33.89;44763.47;5129999;27;20434;-57
2023/08/29 09:21:18;;;;;;;16.77;6.40;;;;;;;-143.84;33.60;44788.22;5130006;27;20438;-57
2023/08/29 09:23:45;;;;;;;9.83;6.20;;;;;;;-143.84;33.28;44763.47;5130362;27;20442;-58
2023/08/29 09:26:13;;;;;;;10.90;5.43;;;;;;;-143.84;32.16;44761.56;5130063;27;20482;-57
2023/08/29 09:28:41;;;;;;;12.00;5.80;;;;;;;-143.84;32.17;44759.66;5130248;27;20438;-57
2023/08/29 09:31:11;;;;;;;18.73;6.00;;;;;;;-143.84;31.61;44729.19;5130278;27;20503;-57
2023/08/29 09:33:39;;;;;;;12.87;6.03;;;;;;;-143.84;31.24;44759.66;5130010;27;20892;-57
2023/08/29 09:36:07;;;;;;;19.07;5.97;;;;;;;-143.84;31.95;44780.59;5129438;27;20442;-57
2023/08/29 09:38:35;;;;;;;22.73;4.77;;;;;;;-143.84;32.14;44774.88;5129360;27;20463;-57
2023/08/29 09:41:03;;;;;;;5.70;4.57;;;;;;;-143.84;30.50;44771.06;5129492;27;20433;-57
2023/08/29 09:43:31;;;;;;;7.30;4.97;;;;;;;-143.84;30.44;44780.59;5129346;27;20438;-57
2023/08/29 09:46:04;;;;;;;7.60;5.20;;;;;;;-143.84;30.47;44769.16;5129664;27;20691;-57
2023/08/29 09:48:34;;;;;;;11.03;4.40;;;;;;;-143.84;29.59;44765.34;5129386;27;20434;-57
2023/08/29 09:51:03;;;;;;;31.27;5.20;;;;;;;-143.84;31.63;44767.25;5129827;27;20513;-57
2023/08/29 09:53:31;;;;;;;9.13;4.70;;;;;;;-143.84;32.00;44752.03;5129927;27;20441;-57
2023/08/29 09:56:07;;;;;;;14.33;5.20;;;;;;;-143.84;31.41;44784.41;5129831;27;20502;-57
2023/08/29 09:58:36;;;;;;;8.70;5.80;;;;;;;-143.84;32.92;44765.34;5129776;27;20442;-57
2023/08/29 10:01:05;;;;;;;12.80;5.40;;;;;;;-143.84;31.84;44776.78;5129658;27;20445;-57
2023/08/29 10:03:35;;;;;;;6.37;4.57;;;;;;;-143.84;31.66;44772.97;5129787;27;20445;-57
2023/08/29 10:06:08;;;;;;;13.90;5.10;;;;;;;-143.84;31.84;44755.84;5129542;27;20438;-57
2023/08/29 10:08:42;;;;;;;11.70;5.50;;;;;;;-143.84;31.57;44767.25;5129794;27;20430;-57
2023/08/29 10:11:10;;;;;;;16.63;5.63;;;;;;;-143.84;31.63;44738.69;5129560;27;20436;-57
2023/08/29 10:13:40;;;;;;;11.87;5.07;;;;;;;-143.84;31.41;44816.78;5129675;27;20912;-57
2023/08/29 10:16:08;;;;;;;6.23;4.53;;;;;;;-143.84;31.44;44765.34;5129613;27;20430;-57
2023/08/29 10:18:38;;;;;;;15.03;5.30;;;;;;;-143.84;31.92;44784.41;5129709;27;20445;-57
2023/08/29 10:21:06;;;;;;;9.63;4.90;;;;;;;-143.84;31.52;44753.94;5129475;27;20442;-57
2023/08/29 10:23:35;;;;;;;21.07;4.80;;;;;;;-143.84;32.32;44771.06;5129291;27;21055;-57
2023/08/29 10:26:03;;;;;;;7.47;5.17;;;;;;;-143.84;30.71;44767.25;5130766;27;20477;-57
2023/08/29 10:28:31;;;;;;;5.90;4.77;;;;;;;-143.84;30.98;44786.31;5133446;27;21267;-57
2023/08/29 10:31:01;;;;;;;9.53;4.80;;;;;;;-143.84;31.40;44750.13;5133168;27;20470;-57
2023/08/29 10:33:29;;;;;;;11.87;5.67;;;;;;;-143.84;30.33;44761.56;5133327;27;20927;-57
2023/08/29 10:35:58;;;;;;;8.30;4.77;;;;;;;-143.84;30.54;44763.47;5133241;27;20437;-57
2023/08/29 10:38:28;;;;;;;12.40;4.77;;;;;;;-143.84;30.73;44725.38;5133270;27;20442;-57
2023/08/29 10:41:05;;;;;;;9.03;4.90;;;;;;;-143.84;30.62;44774.88;5133317;27;20477;-57
2023/08/29 10:43:32;;;;;;;11.70;4.53;;;;;;;-143.84;30.09;44740.59;5133054;27;20473;-57
2023/08/29 10:46:14;;;;;;;7.57;4.70;;;;;;;-143.84;30.58;44767.25;5133002;27;20441;-57
2023/08/29 10:48:55;;;;;;;7.80;4.90;;;;;;;-143.84;30.82;44772.97;5132761;27;20909;-57
2023/08/29 10:51:25;;;;;;;10.50;5.73;;;;;;;-143.84;30.65;44738.69;5132966;27;20440;-57
2023/08/29 10:53:54;;;;;;;11.10;5.60;;;;;;;-143.84;30.13;44780.59;5132895;27;20959;-57
2023/08/29 10:56:24;;;;;;;12.53;5.63;;;;;;;-143.84;30.29;44771.06;5132847;27;20438;-57
2023/08/29 10:58:52;;;;;;;5.80;4.30;;;;;;;-143.84;30.72;44772.97;5132749;27;20525;-57
2023/08/29 11:01:31;;;;;;;15.20;5.50;;;;;;;-143.84;31.59;44769.16;5132762;27;20491;-57
2023/08/29 11:03:59;;;;;;;7.37;5.10;;;;;;;-143.84;30.65;44801.53;5132716;27;20779;-57
2023/08/29 11:06:48;;;;;;;10.40;5.10;;;;;;;-143.84;31.16;44778.69;5132907;27;20909;-57
2023/08/29 11:09:20;;;;;;;7.27;4.93;;;;;;;-143.84;31.52;44793.91;5132519;27;20458;-57
2023/08/29 11:12:09;;;;;;;13.83;5.80;;;;;;;-143.84;31.74;44784.41;5132595;27;20449;-57
2023/08/29 11:14:55;;;;;;;8.87;5.60;;;;;;;-143.84;32.57;44778.69;5132474;27;20426;-57
2023/08/29 11:17:26;;;;;;;10.53;5.53;;;;;;;-143.84;33.11;44803.44;5131922;27;20518;-57